createdAt,value
2022-09-02T00:01:20.417Z,98944.97
2022-09-02T00:03:47.544Z,98943.13
2022-09-02T00:06:15.119Z,98944.97
2022-09-02T00:08:43.015Z,98949.44
2022-09-02T00:11:15.171Z,98949.44
2022-09-02T00:13:43.818Z,98946.91
2022-09-02T00:16:11.431Z,98950.44
2022-09-02T00:18:39.749Z,98951.41
2022-09-02T00:21:13.696Z,98953.22
2022-09-02T00:23:42.401Z,98959.41
2022-09-02T00:26:09.296Z,98957.72
2022-09-02T00:28:36.079Z,98943.56
2022-09-02T00:31:02.962Z,98946.22
2022-09-02T00:33:31.544Z,98939.59
2022-09-02T00:36:00.566Z,98949.00
2022-09-02T00:38:27.345Z,98949.00
2022-09-02T00:40:54.285Z,98942.84
2022-09-02T00:43:46.509Z,98940.16
2022-09-02T00:46:16.446Z,98943.66
2022-09-02T00:48:49.409Z,98942.97
2022-09-02T00:51:16.781Z,98938.63
2022-09-02T00:53:46.459Z,98938.63
2022-09-02T00:56:19.277Z,98943.09
2022-09-02T00:58:47.450Z,98940.56
2022-09-02T01:01:14.688Z,98941.28
2022-09-02T01:03:42.211Z,98937.91
2022-09-02T01:06:15.340Z,98923.56
2022-09-02T01:08:54.368Z,98941.69
2022-09-02T01:11:21.432Z,98916.66
2022-09-02T01:13:48.068Z,98933.53
2022-09-02T01:16:25.078Z,98932.72
2022-09-02T01:18:55.419Z,98937.19
2022-09-02T01:21:23.259Z,98933.69
2022-09-02T01:23:51.146Z,98931.00
2022-09-02T01:26:17.929Z,98927.63
2022-09-02T01:28:44.698Z,98931.25
2022-09-02T01:31:11.939Z,98935.75
2022-09-02T01:33:39.228Z,98934.94
2022-09-02T01:36:06.040Z,98938.72
2022-09-02T01:38:33.241Z,98943.19
2022-09-02T01:41:00.024Z,98944.16
2022-09-02T01:43:28.164Z,98943.31
2022-09-02T01:45:56.771Z,98941.50
2022-09-02T01:48:26.964Z,98945.13
2022-09-02T01:50:58.507Z,98946.97
2022-09-02T01:53:26.543Z,98946.97
2022-09-02T01:55:54.422Z,98944.44
2022-09-02T01:58:22.017Z,98926.44
2022-09-02T02:00:49.584Z,98943.56
2022-09-02T02:03:16.441Z,98938.25
2022-09-02T02:05:43.642Z,98943.56
2022-09-02T02:08:13.859Z,98932.09
2022-09-02T02:10:42.830Z,98941.91
2022-09-02T02:13:11.733Z,98936.69
2022-09-02T02:15:41.771Z,98928.41
2022-09-02T02:18:09.417Z,98941.19
2022-09-02T02:20:37.111Z,98941.19
2022-09-02T02:23:05.653Z,98937.66
2022-09-02T02:25:32.779Z,98944.00
2022-09-02T02:27:59.483Z,98933.44
2022-09-02T02:30:27.131Z,98934.31
2022-09-02T02:32:54.155Z,98929.97
2022-09-02T02:35:22.145Z,98932.63
2022-09-02T02:37:50.544Z,98931.75
2022-09-02T02:40:21.021Z,98916.69
2022-09-02T02:42:49.798Z,98938.09
2022-09-02T02:45:16.542Z,98924.19
2022-09-02T02:47:46.123Z,98929.38
2022-09-02T02:50:17.177Z,98927.53
2022-09-02T02:52:45.620Z,98933.00
2022-09-02T02:55:13.960Z,98929.50
2022-09-02T02:57:42.895Z,98926.97
2022-09-02T03:00:18.932Z,98919.09
2022-09-02T03:02:48.146Z,98923.75
2022-09-02T03:05:16.705Z,98921.91
2022-09-02T03:07:43.359Z,98919.34
2022-09-02T03:10:12.281Z,98921.16
2022-09-02T03:12:41.575Z,98915.25
2022-09-02T03:15:09.401Z,98915.25
2022-09-02T03:17:36.367Z,98915.53
2022-09-02T03:20:04.641Z,98924.50
2022-09-02T03:22:38.827Z,98918.44
2022-09-02T03:25:09.039Z,98911.56
2022-09-02T03:27:40.349Z,98911.13
2022-09-02T03:30:12.111Z,98917.41
2022-09-02T03:32:39.972Z,98914.91
2022-09-02T03:35:09.053Z,98918.53
2022-09-02T03:37:37.317Z,98921.34
2022-09-02T03:40:11.119Z,98916.00
2022-09-02T03:42:38.584Z,98919.63
2022-09-02T03:45:10.538Z,98923.28
2022-09-02T03:50:06.900Z,98924.25
2022-09-02T03:52:34.239Z,98923.41
2022-09-02T03:55:01.349Z,98933.19
2022-09-02T03:57:29.240Z,98935.03
2022-09-02T04:02:22.439Z,98932.38
2022-09-02T04:04:49.755Z,98935.03
2022-09-02T04:07:16.367Z,98944.00
2022-09-02T04:09:46.621Z,98936.97
2022-09-02T04:12:13.723Z,98945.25
2022-09-02T04:14:42.071Z,98941.84
2022-09-02T04:17:09.524Z,98941.16
2022-09-02T04:19:37.573Z,98946.47
2022-09-02T04:22:05.060Z,98953.63
2022-09-02T04:24:32.421Z,98955.44
2022-09-02T04:27:03.837Z,98957.25
2022-09-02T04:29:33.564Z,98958.78
2022-09-02T04:32:00.650Z,98959.53
2022-09-02T04:34:27.506Z,98956.03
2022-09-02T04:36:54.260Z,98958.69
2022-09-02T04:39:21.277Z,98958.69
2022-09-02T04:41:49.419Z,98957.69
2022-09-02T04:44:16.745Z,98962.06
2022-09-02T04:46:46.968Z,98966.41
2022-09-02T04:49:17.927Z,98960.94
2022-09-02T04:51:45.753Z,98957.59
2022-09-02T04:54:12.440Z,98967.38
2022-09-02T04:56:43.092Z,98959.38
2022-09-02T04:59:11.197Z,98961.94
2022-09-02T05:01:42.829Z,98974.25
2022-09-02T05:04:15.235Z,98963.59
2022-09-02T05:06:47.086Z,98964.34
2022-09-02T05:09:23.101Z,98961.66
2022-09-02T05:11:57.914Z,98961.66
2022-09-02T05:14:28.339Z,98959.28
2022-09-02T05:17:02.790Z,98962.19
2022-09-02T05:19:32.383Z,98959.91
2022-09-02T05:22:01.892Z,98959.06
2022-09-02T05:24:33.978Z,98959.22
2022-09-02T05:27:07.040Z,98961.16
2022-09-02T05:29:35.544Z,98959.31
2022-09-02T05:32:04.170Z,98962.13
2022-09-02T05:34:33.465Z,98956.78
2022-09-02T05:37:03.316Z,98953.16
2022-09-02T05:39:32.001Z,98946.41
2022-09-02T05:42:00.468Z,98959.44
2022-09-02T05:44:29.206Z,98960.28
2022-09-02T05:46:57.288Z,98959.31
2022-09-02T05:49:23.988Z,98938.94
2022-09-02T05:52:13.544Z,98950.50
2022-09-02T05:54:44.449Z,98952.19
2022-09-02T05:57:16.038Z,98954.13
2022-09-02T05:59:56.024Z,98957.25
2022-09-02T06:02:26.781Z,98960.78
2022-09-02T06:04:54.805Z,98958.09
2022-09-02T06:07:24.259Z,98961.59
2022-09-02T06:09:52.792Z,98948.56
2022-09-02T06:12:23.551Z,98950.94
2022-09-02T06:14:50.685Z,98951.81
2022-09-02T06:17:21.994Z,98956.13
2022-09-02T06:19:52.707Z,98961.59
2022-09-02T06:22:22.453Z,98961.81
2022-09-02T06:24:49.066Z,98967.44
2022-09-02T06:27:21.476Z,98957.09
2022-09-02T06:29:52.122Z,98959.91
2022-09-02T06:32:21.194Z,98967.03
2022-09-02T06:34:50.235Z,98968.59
2022-09-02T06:37:16.937Z,98972.47
2022-09-02T06:39:44.801Z,98975.34
2022-09-02T06:42:16.584Z,98970.22
2022-09-02T06:44:59.355Z,98970.69
2022-09-02T06:47:26.728Z,98974.66
2022-09-02T06:49:53.340Z,98976.13
2022-09-02T06:52:21.017Z,98979.25
2022-09-02T06:54:50.040Z,98976.22
2022-09-02T06:57:17.333Z,98976.09
2022-09-02T06:59:44.160Z,98967.97
2022-09-02T07:02:12.788Z,98972.03
2022-09-02T07:05:00.324Z,98946.59
2022-09-02T07:07:27.102Z,98948.13
2022-09-02T07:10:04.466Z,98964.66
2022-09-02T07:12:35.672Z,98974.19
2022-09-02T07:15:08.577Z,98971.66
2022-09-02T07:17:39.096Z,98971.88
2022-09-02T07:20:10.829Z,98955.81
2022-09-02T07:22:42.782Z,98973.44
2022-09-02T07:25:13.688Z,98978.63
2022-09-02T07:27:40.395Z,98968.81
2022-09-02T07:30:08.102Z,98971.34
2022-09-02T07:32:38.975Z,98985.50
2022-09-02T07:35:07.821Z,98971.22
2022-09-02T07:37:35.811Z,98981.72
2022-09-02T07:40:07.056Z,98979.06
2022-09-02T07:42:34.279Z,98972.78
2022-09-02T07:47:29.340Z,98971.06
2022-09-02T07:52:43.958Z,98982.22
2022-09-02T07:55:14.948Z,98972.78
2022-09-02T07:57:44.070Z,98970.56
2022-09-02T08:00:12.329Z,98973.94
2022-09-02T08:02:42.891Z,98967.78
2022-09-02T08:05:13.768Z,98975.63
2022-09-02T08:07:40.409Z,98973.81
2022-09-02T08:10:10.596Z,98973.81
2022-09-02T08:12:37.903Z,98954.84
2022-09-02T08:15:05.563Z,98963.03
2022-09-02T08:17:32.675Z,98965.56
2022-09-02T08:19:59.295Z,98969.06
2022-09-02T08:22:27.026Z,98971.72
2022-09-02T08:24:53.592Z,98954.91
2022-09-02T08:27:20.356Z,98962.75
2022-09-02T08:29:46.872Z,98967.94
2022-09-02T08:32:13.823Z,98959.13
2022-09-02T08:34:40.448Z,98964.31
2022-09-02T08:37:07.205Z,98965.19
2022-09-02T08:39:33.804Z,98954.53
2022-09-02T08:42:18.896Z,98952.69
2022-09-02T08:44:46.791Z,98942.69
2022-09-02T08:47:21.820Z,98843.78
2022-09-02T08:49:51.385Z,98949.06
2022-09-02T08:52:33.331Z,98940.88
2022-09-02T08:55:00.987Z,98950.75
2022-09-02T08:57:27.639Z,98948.91
2022-09-02T09:00:01.078Z,98951.56
2022-09-02T09:02:57.842Z,98944.31
2022-09-02T09:05:33.724Z,98944.31
2022-09-02T09:08:13.900Z,98946.88
2022-09-02T09:10:54.857Z,98938.00
2022-09-02T09:13:41.572Z,98935.34
2022-09-02T09:16:14.807Z,98929.69
2022-09-02T09:18:57.083Z,98941.41
2022-09-02T09:23:55.581Z,98935.09
2022-09-02T09:26:30.209Z,98918.19
2022-09-02T09:28:59.379Z,98934.13
2022-09-02T09:31:31.276Z,98934.13
2022-09-02T09:34:00.398Z,98924.56
2022-09-02T09:36:39.652Z,98936.66
2022-09-02T09:39:27.170Z,98929.50
2022-09-02T09:42:02.905Z,98939.19
2022-09-02T09:44:38.541Z,98945.38
2022-09-02T09:47:08.694Z,98937.38
2022-09-02T09:49:36.837Z,98932.88
2022-09-02T09:52:04.537Z,98920.41
2022-09-02T09:54:31.305Z,98926.56
2022-09-02T09:57:15.135Z,98922.94
2022-09-02T09:59:47.527Z,98905.94
2022-09-02T10:02:23.855Z,98915.78
2022-09-02T10:04:53.936Z,98906.94
2022-09-02T10:07:41.461Z,98897.66
2022-09-02T10:10:24.140Z,98910.44
2022-09-02T10:12:53.985Z,98903.25
2022-09-02T10:15:38.766Z,98914.78
2022-09-02T10:18:31.197Z,98914.78
2022-09-02T10:21:24.025Z,98910.34
2022-09-02T10:24:15.715Z,98907.66
2022-09-02T10:26:51.162Z,98904.03
2022-09-02T10:29:40.110Z,98895.16
2022-09-02T10:32:12.812Z,98906.69
2022-09-02T10:34:45.801Z,98890.69
2022-09-02T10:37:19.129Z,98895.03
2022-09-02T10:40:02.529Z,98886.91
2022-09-02T10:42:36.039Z,98892.94
2022-09-02T10:45:13.189Z,98891.28
2022-09-02T10:47:40.777Z,98880.47
2022-09-02T10:50:14.090Z,98882.28
2022-09-02T10:52:43.779Z,98873.44
2022-09-02T10:57:59.559Z,98883.13
2022-09-02T11:00:31.165Z,98889.31
2022-09-02T11:03:12.606Z,98891.97
2022-09-02T11:05:58.512Z,98889.31
2022-09-02T11:08:41.491Z,98889.31
2022-09-02T11:11:21.280Z,98879.50
2022-09-02T11:14:26.247Z,98874.16
2022-09-02T11:17:02.419Z,98865.16
2022-09-02T11:19:55.721Z,98870.38
2022-09-02T11:22:35.176Z,98866.03
2022-09-02T11:25:20.340Z,98860.69
2022-09-02T11:27:55.166Z,98870.38
2022-09-02T11:30:25.587Z,98874.75
2022-09-02T11:33:17.318Z,98864.09
2022-09-02T11:35:45.024Z,98862.25
2022-09-02T11:38:30.061Z,98856.91
2022-09-02T11:41:38.930Z,98863.06
2022-09-02T11:44:36.339Z,98868.41
2022-09-02T11:47:45.491Z,98853.28
2022-09-02T11:50:39.592Z,98859.44
2022-09-02T11:53:41.184Z,98859.44
2022-09-02T11:56:20.027Z,98860.31
2022-09-02T11:58:52.463Z,98863.81
2022-09-02T12:01:25.788Z,98846.50
2022-09-02T12:07:14.867Z,98861.00
2022-09-02T12:09:45.969Z,98852.03
2022-09-02T12:12:37.582Z,98860.88
2022-09-02T12:15:07.545Z,98855.53
2022-09-02T12:17:40.162Z,98852.88
2022-09-02T12:20:12.750Z,98845.72
2022-09-02T12:22:40.232Z,98843.03
2022-09-02T12:25:26.897Z,98838.53
2022-09-02T12:28:31.197Z,98840.38
2022-09-02T12:31:08.796Z,98835.06
2022-09-02T12:35:54.337Z,98835.88
2022-09-02T12:38:39.051Z,98838.53
2022-09-02T12:41:07.808Z,98830.53
2022-09-02T12:46:20.928Z,98827.88
2022-09-02T12:49:01.617Z,98771.13
2022-09-02T12:51:55.304Z,98817.38
2022-09-02T12:54:26.781Z,98812.91
2022-09-02T12:56:56.467Z,98821.72
2022-09-02T12:59:31.359Z,98813.72
2022-09-02T13:02:30.328Z,98804.91
2022-09-02T13:05:37.949Z,98809.38
2022-09-02T13:08:07.232Z,98805.72
2022-09-02T13:11:03.098Z,98803.06
2022-09-02T13:13:51.307Z,98808.41
2022-09-02T13:19:20.036Z,98809.22
2022-09-02T13:22:24.000Z,98802.22
2022-09-02T13:25:10.852Z,98804.75
2022-09-02T13:28:00.935Z,98808.25
2022-09-02T13:30:55.447Z,98800.41
2022-09-02T13:33:22.225Z,98791.69
2022-09-02T13:35:54.636Z,98801.22
2022-09-02T13:38:25.282Z,98806.56
2022-09-02T13:40:54.700Z,98797.72
2022-09-02T13:43:27.300Z,98802.91
2022-09-02T13:46:02.175Z,98807.28
2022-09-02T13:48:32.772Z,98805.44
2022-09-02T13:51:09.064Z,98808.09
2022-09-02T13:53:53.683Z,98794.78
2022-09-02T13:56:30.557Z,98800.00
2022-09-02T13:58:57.169Z,98788.47
2022-09-02T14:01:29.706Z,98789.31
2022-09-02T14:03:59.418Z,98788.34
2022-09-02T14:06:33.218Z,98784.00
2022-09-02T14:09:02.608Z,98778.66
2022-09-02T14:11:41.889Z,98770.50
2022-09-02T14:14:12.860Z,98782.00
2022-09-02T14:16:39.420Z,98789.03
2022-09-02T14:19:15.077Z,98781.03
2022-09-02T14:21:56.452Z,98779.22
2022-09-02T14:24:29.103Z,98770.94
2022-09-02T14:26:57.834Z,98760.66
2022-09-02T14:29:26.240Z,98775.13
2022-09-02T14:32:15.871Z,98782.88
2022-09-02T14:34:47.740Z,98782.00
2022-09-02T14:37:21.931Z,98775.03
2022-09-02T14:40:01.679Z,98783.84
2022-09-02T14:42:29.464Z,98780.34
2022-09-02T14:44:59.281Z,98778.66
2022-09-02T14:47:28.139Z,98775.84
2022-09-02T14:49:56.121Z,98779.34
2022-09-02T14:52:28.608Z,98779.22
2022-09-02T14:54:56.923Z,98777.41
2022-09-02T14:57:23.483Z,98769.25
2022-09-02T14:59:51.131Z,98775.44
2022-09-02T15:02:22.243Z,98765.75
2022-09-02T15:04:49.120Z,98763.81
2022-09-02T15:07:15.895Z,98777.97
2022-09-02T15:09:44.417Z,98771.66
2022-09-02T15:12:12.699Z,98769.97
2022-09-02T15:14:39.676Z,98771.66
2022-09-02T15:17:10.284Z,98762.78
2022-09-02T15:19:36.927Z,98761.97
2022-09-02T15:22:03.515Z,98765.47
2022-09-02T15:24:30.197Z,98764.50
2022-09-02T15:26:56.749Z,98759.16
2022-09-02T15:29:28.698Z,98760.84
2022-09-02T15:31:55.723Z,98767.88
2022-09-02T15:34:26.381Z,98759.03
2022-09-02T15:36:55.233Z,98761.81
2022-09-02T15:39:22.876Z,98763.50
2022-09-02T15:41:50.108Z,98755.91
2022-09-02T15:44:17.955Z,98750.16
2022-09-02T15:46:45.606Z,98767.88
2022-09-02T15:49:15.753Z,98766.03
2022-09-02T15:51:45.283Z,98765.91
2022-09-02T15:54:16.392Z,98765.63
2022-09-02T15:56:45.369Z,98762.94
2022-09-02T15:59:13.204Z,98757.47
2022-09-02T16:01:43.712Z,98758.34
2022-09-02T16:04:11.695Z,98757.34
2022-09-02T16:06:40.389Z,98760.84
2022-09-02T16:09:14.358Z,98755.50
2022-09-02T16:11:46.943Z,98758.19
2022-09-02T16:14:14.939Z,98762.53
2022-09-02T16:16:48.152Z,98759.88
2022-09-02T16:19:15.269Z,98759.88
2022-09-02T16:21:42.208Z,98752.03
2022-09-02T16:24:09.361Z,98760.03
2022-09-02T16:26:40.568Z,98755.81
2022-09-02T16:29:10.441Z,98756.63
2022-09-02T16:31:39.703Z,98758.59
2022-09-02T16:34:09.257Z,98754.53
2022-09-02T16:36:38.254Z,98759.72
2022-09-02T16:39:06.128Z,98756.38
2022-09-02T16:41:35.112Z,98759.16
2022-09-02T16:44:05.704Z,98760.00
2022-09-02T16:46:33.297Z,98756.50
2022-09-02T16:49:00.213Z,98754.78
2022-09-02T16:51:27.674Z,98749.47
2022-09-02T16:53:56.519Z,98752.03
2022-09-02T16:56:24.182Z,98751.16
2022-09-02T16:58:52.611Z,98728.84
2022-09-02T17:01:21.992Z,98748.63
2022-09-02T17:03:50.570Z,98744.28
2022-09-02T17:06:18.189Z,98750.47
2022-09-02T17:08:44.868Z,98748.78
2022-09-02T17:11:25.760Z,98747.91
2022-09-02T17:13:57.588Z,98745.25
2022-09-02T17:16:26.820Z,98749.63
2022-09-02T17:18:54.741Z,98753.25
2022-09-02T17:21:26.506Z,98744.44
2022-09-02T17:23:54.318Z,98754.94
2022-09-02T17:26:23.251Z,98758.59
2022-09-02T17:28:53.222Z,98749.75
2022-09-02T17:31:31.529Z,98760.44
2022-09-02T17:34:00.332Z,98751.59
2022-09-02T17:36:29.260Z,98753.41
2022-09-02T17:38:57.516Z,98758.72
2022-09-02T17:41:43.923Z,98743.59
2022-09-02T17:44:12.132Z,98759.59
2022-09-02T17:46:38.716Z,98730.53
2022-09-02T17:49:16.810Z,98749.03
2022-09-02T17:51:44.809Z,98735.72
2022-09-02T17:54:12.316Z,98752.56
2022-09-02T17:57:03.935Z,98759.72
2022-09-02T17:59:42.388Z,98758.88
2022-09-02T18:02:14.766Z,98755.34
2022-09-02T18:04:59.645Z,98769.69
2022-09-02T18:08:00.951Z,98768.84
2022-09-02T18:10:34.404Z,98754.25
2022-09-02T18:13:08.008Z,98767.13
2022-09-02T18:16:06.300Z,98767.13
2022-09-02T18:19:07.697Z,98774.31
2022-09-02T18:22:06.273Z,98770.78
2022-09-02T18:24:58.089Z,98768.25
2022-09-02T18:27:44.922Z,98771.06
2022-09-02T18:30:27.985Z,98746.09
2022-09-02T18:32:55.959Z,98764.91
2022-09-02T18:35:25.297Z,98765.75
2022-09-02T18:38:21.475Z,98772.06
2022-09-02T18:41:07.013Z,98776.41
2022-09-02T18:44:09.325Z,98779.22
2022-09-02T18:46:49.425Z,98776.56
2022-09-02T18:49:17.114Z,98774.72
2022-09-02T18:51:45.027Z,98772.19
2022-09-02T18:54:23.696Z,98777.53
2022-09-02T18:56:57.433Z,98774.00
2022-09-02T19:00:05.873Z,98783.00
2022-09-02T19:02:42.337Z,98770.66
2022-09-02T19:05:12.831Z,98783.13
2022-09-02T19:07:58.138Z,98783.13
2022-09-02T19:10:24.894Z,98779.88
2022-09-02T19:12:54.679Z,98782.28
2022-09-02T19:15:21.660Z,98781.47
2022-09-02T19:17:49.562Z,98786.78
2022-09-02T19:20:16.581Z,98787.63
2022-09-02T19:22:47.955Z,98789.47
2022-09-02T19:25:20.017Z,98781.47
2022-09-02T19:30:22.460Z,98776.25
2022-09-02T19:32:52.633Z,98782.44
2022-09-02T19:35:27.688Z,98784.25
2022-09-02T19:37:56.188Z,98792.38
2022-09-02T19:40:26.477Z,98794.22
2022-09-02T19:42:53.950Z,98793.22
2022-09-02T19:45:22.244Z,98790.53
2022-09-02T19:48:08.887Z,98797.72
2022-09-02T19:50:42.679Z,98795.88
2022-09-02T19:53:30.533Z,98783.97
2022-09-02T19:55:58.616Z,98795.03
2022-09-02T19:58:29.674Z,98798.53
2022-09-02T20:00:57.188Z,98795.88
2022-09-02T20:03:23.990Z,98797.56
2022-09-02T20:05:57.647Z,98791.41
2022-09-02T20:08:30.956Z,98788.75
2022-09-02T20:11:03.370Z,98792.38
2022-09-02T20:13:37.400Z,98791.41
2022-09-02T20:16:20.458Z,98778.63
2022-09-02T20:18:49.962Z,98789.56
2022-09-02T20:21:24.541Z,98788.59
2022-09-02T20:23:53.746Z,98793.09
2022-09-02T20:26:29.784Z,98785.09
2022-09-02T20:29:08.888Z,98781.56
2022-09-02T20:32:14.583Z,98785.09
2022-09-02T20:35:11.536Z,98790.44
2022-09-02T20:37:50.952Z,98785.22
2022-09-02T20:40:48.417Z,98785.09
2022-09-02T20:43:23.141Z,98777.38
2022-09-02T20:46:19.459Z,98773.72
2022-09-02T20:49:18.375Z,98782.28
2022-09-02T20:51:54.188Z,98780.59
2022-09-02T20:54:53.014Z,98778.91
2022-09-02T20:58:17.743Z,98785.94
2022-09-02T21:01:06.539Z,98788.59
2022-09-02T21:04:21.114Z,98789.47
2022-09-02T21:07:03.047Z,98799.53
2022-09-02T21:09:41.285Z,98777.09
2022-09-02T21:12:37.403Z,98798.28
2022-09-02T21:15:14.169Z,98800.94
2022-09-02T21:17:49.690Z,98798.44
2022-09-02T21:20:36.972Z,98803.63
2022-09-02T21:23:11.072Z,98803.63
2022-09-02T21:25:55.851Z,98809.78
2022-09-02T21:28:32.524Z,98795.19
2022-09-02T21:33:22.773Z,98797.00
2022-09-02T21:35:51.457Z,98807.25
2022-09-02T21:38:24.268Z,98806.41
2022-09-02T21:41:31.843Z,98800.22
2022-09-02T21:44:17.034Z,98808.22
2022-09-02T21:47:01.458Z,98802.91
2022-09-02T21:49:49.627Z,98809.19
2022-09-02T21:52:26.732Z,98799.53
2022-09-02T21:55:19.120Z,98812.00
2022-09-02T21:57:55.373Z,98805.00
2022-09-02T22:00:22.985Z,98808.50
2022-09-02T22:02:57.996Z,98802.31
2022-09-02T22:05:47.532Z,98810.31
2022-09-02T22:08:16.934Z,98809.50
2022-09-02T22:11:08.675Z,98807.78
2022-09-02T22:13:37.740Z,98796.28
2022-09-02T22:16:19.741Z,98792.34
2022-09-02T22:19:01.394Z,98794.63
2022-09-02T22:21:48.015Z,98798.13
2022-09-02T22:24:16.576Z,98793.19
2022-09-02T22:27:03.312Z,98806.25
2022-09-02T22:29:49.188Z,98805.41
2022-09-02T22:32:20.192Z,98799.63
2022-09-02T22:37:06.193Z,98794.88
2022-09-02T22:39:38.637Z,98796.72
2022-09-02T22:42:17.793Z,98797.53
2022-09-02T22:45:11.017Z,98794.31
2022-09-02T22:48:04.076Z,98797.69
2022-09-02T22:50:55.573Z,98736.84
2022-09-02T22:53:22.217Z,98798.66
2022-09-02T22:55:58.532Z,98787.16
2022-09-02T22:58:51.317Z,98797.97
2022-09-02T23:01:42.896Z,98794.44
2022-09-02T23:04:32.348Z,98773.94
2022-09-02T23:07:04.991Z,98796.28
2022-09-02T23:12:27.673Z,98790.25
2022-09-02T23:15:08.498Z,98779.59
2022-09-02T23:18:12.779Z,98780.56
2022-09-02T23:20:48.216Z,98783.38
2022-09-02T23:23:38.779Z,98786.84
2022-09-02T23:26:22.909Z,98787.88
2022-09-02T23:29:05.540Z,98783.47
2022-09-02T23:31:32.311Z,98775.59
2022-09-02T23:34:03.148Z,98779.13
2022-09-02T23:36:59.824Z,98778.41
2022-09-02T23:39:43.610Z,98773.06
2022-09-02T23:42:11.874Z,98754.69
2022-09-02T23:44:38.563Z,98768.88
2022-09-02T23:47:37.611Z,98779.53
2022-09-02T23:50:07.253Z,98777.81
2022-09-02T23:53:01.558Z,98773.47
2022-09-02T23:55:44.228Z,98770.81
2022-09-02T23:58:20.355Z,98778.94
